createdAt,value
2022-11-19T00:00:14.669Z,3.78
2022-11-19T00:02:43.173Z,5.60
2022-11-19T00:05:13.023Z,6.10
2022-11-19T00:07:41.633Z,6.38
2022-11-19T00:10:10.725Z,5.18
2022-11-19T00:12:56.245Z,5.70
2022-11-19T00:15:24.826Z,5.10
2022-11-19T00:17:53.542Z,3.67
2022-11-19T00:20:23.382Z,3.75
2022-11-19T00:22:53.725Z,4.70
2022-11-19T00:25:24.059Z,5.97
2022-11-19T00:31:16.614Z,4.47
2022-11-19T00:33:54.613Z,3.95
2022-11-19T00:36:32.952Z,6.07
2022-11-19T00:39:07.820Z,4.43
2022-11-19T00:41:52.645Z,5.63
2022-11-19T00:44:36.754Z,7.00
2022-11-19T00:47:06.222Z,3.28
2022-11-19T00:49:34.761Z,3.38
2022-11-19T00:52:05.009Z,7.43
2022-11-19T00:54:33.531Z,4.00
2022-11-19T00:57:02.087Z,4.97
2022-11-19T00:59:32.531Z,4.93
2022-11-19T01:05:06.565Z,6.57
2022-11-19T01:07:37.481Z,4.53
2022-11-19T01:10:10.450Z,4.72
2022-11-19T01:12:59.849Z,6.30
2022-11-19T01:15:29.179Z,5.15
2022-11-19T01:17:58.525Z,6.28
2022-11-19T01:20:28.288Z,5.38
2022-11-19T01:22:59.500Z,4.63
2022-11-19T01:25:32.640Z,6.35
2022-11-19T01:28:02.269Z,5.78
2022-11-19T01:30:31.913Z,4.72
2022-11-19T01:33:01.728Z,5.43
2022-11-19T01:35:36.456Z,5.75
2022-11-19T01:38:08.542Z,4.07
2022-11-19T01:40:44.980Z,4.18
2022-11-19T01:43:16.018Z,5.05
2022-11-19T01:45:48.592Z,4.53
2022-11-19T01:48:28.070Z,5.43
2022-11-19T01:51:03.876Z,4.18
2022-11-19T01:53:38.850Z,4.78
2022-11-19T01:56:10.989Z,6.28
2022-11-19T01:58:43.212Z,5.80
2022-11-19T02:01:13.717Z,7.20
2022-11-19T02:03:45.929Z,7.13
2022-11-19T02:06:15.670Z,5.18
2022-11-19T02:08:48.722Z,7.07
2022-11-19T02:11:44.874Z,9.73
2022-11-19T02:14:34.433Z,5.22
2022-11-19T02:17:14.290Z,4.57
2022-11-19T02:20:17.921Z,5.40
2022-11-19T02:23:23.769Z,4.20
2022-11-19T02:26:21.242Z,6.55
2022-11-19T02:28:54.722Z,4.68
2022-11-19T02:31:28.404Z,7.18
2022-11-19T02:34:02.129Z,5.60
2022-11-19T02:36:40.109Z,5.30
2022-11-19T02:39:16.933Z,4.80
2022-11-19T02:41:53.614Z,7.47
2022-11-19T02:44:45.506Z,5.40
2022-11-19T02:47:20.326Z,4.60
2022-11-19T02:49:54.924Z,4.55
2022-11-19T02:52:27.015Z,7.03
2022-11-19T02:54:56.922Z,6.00
2022-11-19T02:57:26.229Z,6.68
2022-11-19T03:00:20.280Z,3.60
2022-11-19T03:03:13.917Z,6.35
2022-11-19T03:05:47.955Z,5.65
2022-11-19T03:08:18.005Z,4.35
2022-11-19T03:10:54.734Z,7.75
2022-11-19T03:14:02.113Z,4.45
2022-11-19T03:16:43.046Z,6.60
2022-11-19T03:19:28.996Z,7.30
2022-11-19T03:22:01.811Z,6.57
2022-11-19T03:24:35.757Z,9.73
2022-11-19T03:27:10.006Z,4.40
2022-11-19T03:29:45.204Z,4.13
2022-11-19T03:32:18.700Z,4.38
2022-11-19T03:34:54.237Z,5.25
2022-11-19T03:37:26.643Z,5.72
2022-11-19T03:40:00.981Z,6.60
2022-11-19T03:42:31.618Z,4.43
2022-11-19T03:45:05.275Z,5.03
2022-11-19T03:47:37.606Z,5.50
2022-11-19T03:50:20.312Z,4.68
2022-11-19T03:52:49.633Z,3.60
2022-11-19T03:55:19.227Z,4.07
2022-11-19T03:57:48.373Z,3.75
2022-11-19T04:00:19.098Z,4.68
2022-11-19T04:02:48.360Z,4.90
2022-11-19T04:05:19.140Z,5.43
2022-11-19T04:07:48.293Z,5.90
2022-11-19T04:10:18.104Z,4.03
2022-11-19T04:12:47.474Z,5.10
2022-11-19T04:15:17.189Z,4.50
2022-11-19T04:17:46.450Z,2.70
2022-11-19T04:20:16.130Z,2.45
2022-11-19T04:22:47.050Z,2.85
2022-11-19T04:25:16.428Z,2.63
2022-11-19T04:27:47.152Z,1.63
2022-11-19T04:30:17.261Z,1.45
2022-11-19T04:32:46.458Z,1.70
2022-11-19T04:35:18.339Z,1.25
2022-11-19T04:37:51.661Z,1.42
2022-11-19T04:40:20.755Z,1.75
2022-11-19T04:42:49.930Z,1.33
2022-11-19T04:45:19.054Z,2.35
2022-11-19T04:47:48.112Z,1.10
2022-11-19T04:50:17.328Z,1.13
2022-11-19T04:52:46.695Z,1.73
2022-11-19T04:55:19.661Z,1.63
2022-11-19T04:57:52.241Z,1.70
2022-11-19T05:00:22.123Z,1.45
2022-11-19T05:02:51.306Z,1.27
2022-11-19T05:05:20.660Z,1.58
2022-11-19T05:07:50.039Z,1.42
2022-11-19T05:10:20.757Z,4.28
2022-11-19T05:12:50.277Z,1.42
2022-11-19T05:15:19.990Z,1.38
2022-11-19T05:17:49.019Z,1.45
2022-11-19T05:20:18.327Z,1.38
2022-11-19T05:22:47.367Z,1.25
2022-11-19T05:25:16.457Z,0.90
2022-11-19T05:27:47.217Z,1.20
2022-11-19T05:30:16.568Z,1.55
2022-11-19T05:32:45.738Z,2.45
2022-11-19T05:35:15.179Z,1.73
2022-11-19T05:37:44.371Z,1.45
2022-11-19T05:40:14.573Z,2.22
2022-11-19T05:42:47.809Z,2.13
2022-11-19T05:45:17.327Z,1.25
2022-11-19T05:47:48.803Z,2.83
2022-11-19T05:50:18.462Z,2.22
2022-11-19T05:52:52.479Z,1.90
2022-11-19T05:55:21.856Z,1.20
2022-11-19T05:57:52.953Z,1.48
2022-11-19T06:00:22.439Z,1.55
2022-11-19T06:02:51.988Z,1.73
2022-11-19T06:05:20.936Z,1.73
2022-11-19T06:07:49.541Z,3.85
2022-11-19T06:10:18.147Z,2.40
2022-11-19T06:12:46.686Z,2.28
2022-11-19T06:15:16.649Z,2.20
2022-11-19T06:17:45.187Z,2.67
2022-11-19T06:20:13.686Z,3.42
2022-11-19T06:22:42.356Z,2.35
2022-11-19T06:25:11.117Z,2.78
2022-11-19T06:27:39.632Z,3.03
2022-11-19T06:30:09.244Z,3.15
2022-11-19T06:32:39.161Z,4.95
2022-11-19T06:35:08.432Z,3.15
2022-11-19T06:37:37.404Z,4.05
2022-11-19T06:40:07.053Z,3.88
2022-11-19T06:42:38.474Z,3.00
2022-11-19T06:45:09.376Z,3.75
2022-11-19T06:47:40.413Z,3.75
2022-11-19T06:50:11.647Z,3.85
2022-11-19T06:52:40.225Z,4.20
2022-11-19T06:55:09.641Z,3.30
2022-11-19T06:57:38.176Z,2.90
2022-11-19T07:00:07.701Z,3.10
2022-11-19T07:02:36.271Z,3.42
2022-11-19T07:05:07.051Z,3.45
2022-11-19T07:07:36.015Z,4.47
2022-11-19T07:10:04.796Z,4.40
2022-11-19T07:12:33.277Z,4.50
2022-11-19T07:15:04.616Z,4.40
2022-11-19T07:17:33.964Z,5.18
2022-11-19T07:20:02.877Z,6.15
2022-11-19T07:22:32.922Z,4.45
2022-11-19T07:25:01.453Z,4.10
2022-11-19T07:27:29.911Z,5.72
2022-11-19T07:29:58.600Z,6.97
2022-11-19T07:32:27.707Z,7.22
2022-11-19T07:34:56.185Z,6.50
2022-11-19T07:37:24.913Z,6.22
2022-11-19T07:39:54.932Z,7.32
2022-11-19T07:42:41.023Z,7.75
2022-11-19T07:45:11.106Z,8.50
2022-11-19T07:47:39.599Z,6.85
2022-11-19T07:50:08.817Z,5.63
2022-11-19T07:52:37.317Z,7.78
2022-11-19T07:55:08.489Z,7.97
2022-11-19T07:57:37.449Z,7.75
2022-11-19T08:00:07.302Z,6.57
2022-11-19T08:02:41.612Z,5.57
2022-11-19T08:05:10.655Z,6.68
2022-11-19T08:07:39.548Z,7.18
2022-11-19T08:10:11.006Z,6.05
2022-11-19T08:12:39.590Z,7.45
2022-11-19T08:15:09.483Z,8.68
2022-11-19T08:17:55.662Z,7.85
2022-11-19T08:20:24.244Z,6.78
2022-11-19T08:22:53.289Z,7.88
2022-11-19T08:25:23.103Z,6.25
2022-11-19T08:27:51.651Z,7.63
2022-11-19T08:30:20.240Z,6.72
2022-11-19T08:32:49.058Z,8.68
2022-11-19T08:35:17.783Z,8.50
2022-11-19T08:37:47.732Z,7.72
2022-11-19T08:40:17.003Z,8.27
2022-11-19T08:43:00.795Z,8.70
2022-11-19T08:45:31.647Z,8.57
2022-11-19T08:48:01.738Z,8.23
2022-11-19T08:50:31.623Z,6.88
2022-11-19T08:53:01.505Z,8.20
2022-11-19T08:55:31.928Z,10.57
2022-11-19T08:58:02.879Z,8.73
2022-11-19T09:00:33.282Z,8.60
2022-11-19T09:03:02.007Z,8.48
2022-11-19T09:05:30.564Z,9.27
2022-11-19T09:07:59.115Z,9.40
2022-11-19T09:10:28.102Z,9.10
2022-11-19T09:12:56.624Z,8.90
2022-11-19T09:15:26.412Z,7.10
2022-11-19T09:17:55.066Z,7.45
2022-11-19T09:20:23.902Z,7.20
2022-11-19T09:22:52.471Z,7.82
2022-11-19T09:25:20.983Z,9.38
2022-11-19T09:27:49.478Z,7.95
2022-11-19T09:30:18.167Z,7.25
2022-11-19T09:32:47.999Z,9.40
2022-11-19T09:35:16.561Z,7.82
2022-11-19T09:37:45.144Z,8.32
2022-11-19T09:40:17.754Z,8.65
2022-11-19T09:42:55.440Z,10.32
2022-11-19T09:45:31.678Z,8.55
2022-11-19T09:48:29.339Z,7.90
2022-11-19T09:51:01.547Z,9.05
2022-11-19T09:53:33.999Z,8.20
2022-11-19T09:56:03.612Z,8.70
2022-11-19T09:58:35.878Z,8.25
2022-11-19T10:01:04.583Z,8.00
2022-11-19T10:03:34.900Z,7.75
2022-11-19T10:06:13.531Z,8.95
2022-11-19T10:08:58.239Z,9.52
2022-11-19T10:11:39.961Z,7.75
2022-11-19T10:14:16.488Z,6.97
2022-11-19T10:16:54.043Z,7.85
2022-11-19T10:19:41.895Z,6.85
2022-11-19T10:22:15.859Z,7.32
2022-11-19T10:24:46.058Z,8.75
2022-11-19T10:27:24.232Z,9.60
2022-11-19T10:29:57.519Z,8.20
2022-11-19T10:32:33.449Z,6.63
2022-11-19T10:35:08.746Z,8.45
2022-11-19T10:37:42.680Z,8.00
2022-11-19T10:40:18.225Z,7.45
2022-11-19T10:42:50.695Z,9.27
2022-11-19T10:45:23.194Z,8.90
2022-11-19T10:47:57.834Z,7.93
2022-11-19T10:50:27.844Z,7.60
2022-11-19T10:53:01.018Z,9.18
2022-11-19T10:55:33.315Z,8.02
2022-11-19T10:58:09.270Z,7.30
2022-11-19T11:00:39.831Z,7.32
2022-11-19T11:03:19.412Z,7.82
2022-11-19T11:06:06.779Z,7.72
2022-11-19T11:08:48.237Z,9.77
2022-11-19T11:11:48.840Z,7.63
2022-11-19T11:14:36.431Z,7.82
2022-11-19T11:17:07.150Z,8.63
2022-11-19T11:19:35.943Z,7.47
2022-11-19T11:22:05.853Z,8.48
2022-11-19T11:24:37.523Z,8.70
2022-11-19T11:27:22.593Z,9.15
2022-11-19T11:30:04.954Z,8.25
2022-11-19T11:32:33.999Z,6.93
2022-11-19T11:35:07.505Z,6.25
2022-11-19T11:37:39.080Z,9.27
2022-11-19T11:40:08.803Z,7.78
2022-11-19T11:42:37.449Z,7.72
2022-11-19T11:45:08.751Z,9.45
2022-11-19T11:47:40.562Z,8.25
2022-11-19T11:50:15.842Z,6.93
2022-11-19T11:52:47.997Z,8.48
2022-11-19T11:55:31.619Z,8.50
2022-11-19T11:58:02.131Z,8.68
2022-11-19T12:00:33.872Z,7.53
2022-11-19T12:03:04.447Z,7.50
2022-11-19T12:05:45.148Z,9.70
2022-11-19T12:08:28.221Z,8.52
2022-11-19T12:11:03.899Z,8.20
2022-11-19T12:14:00.455Z,6.65
2022-11-19T12:16:45.114Z,8.30
2022-11-19T12:19:41.487Z,9.10
2022-11-19T12:22:18.256Z,10.50
2022-11-19T12:25:03.784Z,7.72
2022-11-19T12:27:39.803Z,8.65
2022-11-19T12:30:13.279Z,8.57
2022-11-19T12:32:57.488Z,8.20
2022-11-19T12:35:43.426Z,9.10
2022-11-19T12:38:29.380Z,10.82
2022-11-19T12:41:13.261Z,7.65
2022-11-19T12:43:54.643Z,9.75
2022-11-19T12:46:35.267Z,8.10
2022-11-19T12:49:28.591Z,9.23
2022-11-19T12:52:07.579Z,8.45
2022-11-19T12:54:53.396Z,8.60
2022-11-19T12:57:42.550Z,9.70
2022-11-19T13:00:15.197Z,11.88
2022-11-19T13:02:54.080Z,8.68
2022-11-19T13:05:28.450Z,9.27
2022-11-19T13:08:02.483Z,9.75
2022-11-19T13:10:36.804Z,9.43
2022-11-19T13:13:09.975Z,9.07
2022-11-19T13:15:44.371Z,9.98
2022-11-19T13:18:17.349Z,8.82
2022-11-19T13:20:49.920Z,10.07
2022-11-19T13:23:24.312Z,9.93
2022-11-19T13:25:58.784Z,12.55
2022-11-19T13:28:37.027Z,8.65
2022-11-19T13:31:13.277Z,8.30
2022-11-19T13:33:48.378Z,8.82
2022-11-19T13:36:24.499Z,8.93
2022-11-19T13:38:56.148Z,11.05
2022-11-19T13:41:29.672Z,14.35
2022-11-19T13:44:17.658Z,12.75
2022-11-19T13:46:50.586Z,11.73
2022-11-19T13:49:24.110Z,9.15
2022-11-19T13:51:57.654Z,9.32
2022-11-19T13:54:31.014Z,11.95
2022-11-19T13:56:59.909Z,14.27
2022-11-19T13:59:36.748Z,13.82
2022-11-19T14:02:48.102Z,12.63
2022-11-19T14:06:02.135Z,11.55
2022-11-19T14:08:52.439Z,13.63
2022-11-19T14:11:34.831Z,11.98
2022-11-19T14:14:36.697Z,13.85
2022-11-19T14:17:33.755Z,12.75
2022-11-19T14:20:19.663Z,12.30
2022-11-19T14:23:13.500Z,12.18
2022-11-19T14:26:02.911Z,10.45
2022-11-19T14:28:50.453Z,8.30
2022-11-19T14:31:20.245Z,9.52
2022-11-19T14:34:03.874Z,10.45
2022-11-19T14:36:45.958Z,10.15
2022-11-19T14:39:19.089Z,14.55
2022-11-19T14:41:47.861Z,10.18
2022-11-19T14:44:36.369Z,9.85
2022-11-19T14:47:33.509Z,11.43
2022-11-19T14:50:14.758Z,12.05
2022-11-19T14:52:53.457Z,10.98
2022-11-19T14:55:23.956Z,12.23
2022-11-19T14:58:01.570Z,10.90
2022-11-19T15:00:34.292Z,11.23
2022-11-19T15:03:05.196Z,10.27
2022-11-19T15:05:40.540Z,10.68
2022-11-19T15:08:42.963Z,11.95
2022-11-19T15:11:12.461Z,9.38
2022-11-19T15:13:42.291Z,10.85
2022-11-19T15:16:13.727Z,10.40
2022-11-19T15:19:15.231Z,10.63
2022-11-19T15:22:23.180Z,10.40
2022-11-19T15:25:04.883Z,11.23
2022-11-19T15:27:45.084Z,11.00
2022-11-19T15:30:18.669Z,10.13
2022-11-19T15:33:17.865Z,10.68
2022-11-19T15:36:12.813Z,11.65
2022-11-19T15:38:47.191Z,10.98
2022-11-19T15:41:21.010Z,10.35
2022-11-19T15:43:51.917Z,14.23
2022-11-19T15:46:30.440Z,12.63
2022-11-19T15:49:05.719Z,12.15
2022-11-19T15:52:03.469Z,13.27
2022-11-19T15:54:34.491Z,11.88
2022-11-19T15:57:06.048Z,14.07
2022-11-19T15:59:37.545Z,11.25
2022-11-19T16:02:18.799Z,12.23
2022-11-19T16:04:50.488Z,12.05
2022-11-19T16:07:24.511Z,14.57
2022-11-19T16:09:55.115Z,12.50
2022-11-19T16:12:43.752Z,12.30
2022-11-19T16:15:42.191Z,13.00
2022-11-19T16:18:15.278Z,13.18
2022-11-19T16:20:47.559Z,11.48
2022-11-19T16:23:20.037Z,14.80
2022-11-19T16:25:50.731Z,13.50
2022-11-19T16:28:23.710Z,12.20
2022-11-19T16:30:53.811Z,12.20
2022-11-19T16:33:24.141Z,13.55
2022-11-19T16:35:54.408Z,13.00
2022-11-19T16:38:29.160Z,14.20
2022-11-19T16:41:16.816Z,12.77
2022-11-19T16:43:48.494Z,12.88
2022-11-19T16:46:21.999Z,14.18
2022-11-19T16:48:56.527Z,13.10
2022-11-19T16:51:51.880Z,15.30
2022-11-19T16:54:46.408Z,14.90
2022-11-19T16:57:20.658Z,13.98
2022-11-19T16:59:52.596Z,14.68
2022-11-19T17:02:23.754Z,13.65
2022-11-19T17:04:54.627Z,14.52
2022-11-19T17:07:25.823Z,14.50
2022-11-19T17:10:10.063Z,14.57
2022-11-19T17:12:51.193Z,14.27
2022-11-19T17:15:38.507Z,14.30
2022-11-19T17:18:16.467Z,16.27
2022-11-19T17:20:55.673Z,14.80
2022-11-19T17:23:25.573Z,15.07
2022-11-19T17:25:57.057Z,14.57
2022-11-19T17:28:38.237Z,15.02
2022-11-19T17:31:16.253Z,14.05
2022-11-19T17:33:56.301Z,15.70
2022-11-19T17:36:25.748Z,19.88
2022-11-19T17:38:54.852Z,17.20
2022-11-19T17:41:45.599Z,19.27
2022-11-19T17:44:35.535Z,14.60
2022-11-19T17:47:07.377Z,16.90
2022-11-19T17:49:46.898Z,17.40
2022-11-19T17:52:22.696Z,16.73
2022-11-19T17:54:52.179Z,18.13
2022-11-19T17:57:20.773Z,16.35
2022-11-19T17:59:50.796Z,17.85
2022-11-19T18:02:22.681Z,17.27
2022-11-19T18:04:51.692Z,18.42
2022-11-19T18:07:20.356Z,17.58
2022-11-19T18:09:49.003Z,18.52
2022-11-19T18:12:19.835Z,20.38
2022-11-19T18:14:49.942Z,18.27
2022-11-19T18:17:18.642Z,22.77
2022-11-19T18:19:47.173Z,19.75
2022-11-19T18:22:20.493Z,23.02
2022-11-19T18:24:51.297Z,33.45
2022-11-19T18:27:20.272Z,34.40
2022-11-19T18:29:50.159Z,26.38
2022-11-19T18:32:18.717Z,20.10
2022-11-19T18:34:47.349Z,20.48
2022-11-19T18:37:15.928Z,19.08
2022-11-19T18:39:44.407Z,18.52
2022-11-19T18:42:13.287Z,17.85
2022-11-19T18:44:43.525Z,18.08
2022-11-19T18:47:15.127Z,17.95
2022-11-19T18:49:43.614Z,19.13
2022-11-19T18:52:14.932Z,18.58
2022-11-19T18:54:43.975Z,19.48
2022-11-19T18:57:13.983Z,17.50
2022-11-19T18:59:42.535Z,17.52
2022-11-19T19:02:12.838Z,17.77
2022-11-19T19:04:41.653Z,20.17
2022-11-19T19:07:10.320Z,16.02
2022-11-19T19:09:38.945Z,17.67
2022-11-19T19:12:17.547Z,19.13
2022-11-19T19:14:47.960Z,18.85
2022-11-19T19:17:17.990Z,20.08
2022-11-19T19:19:47.304Z,17.83
2022-11-19T19:22:15.771Z,20.38
2022-11-19T19:24:44.343Z,18.65
2022-11-19T19:27:13.039Z,19.80
2022-11-19T19:29:41.574Z,19.58
2022-11-19T19:32:10.060Z,19.08
2022-11-19T19:34:39.940Z,17.50
2022-11-19T19:37:08.514Z,19.02
2022-11-19T19:39:37.352Z,20.88
2022-11-19T19:42:06.016Z,18.13
2022-11-19T19:44:34.548Z,20.63
2022-11-19T19:47:03.043Z,24.38
2022-11-19T19:49:35.922Z,23.08
2022-11-19T19:52:08.446Z,19.85
2022-11-19T19:54:39.850Z,20.88
2022-11-19T19:57:08.434Z,20.85
2022-11-19T19:59:37.324Z,23.30
2022-11-19T20:02:05.818Z,20.70
2022-11-19T20:04:34.399Z,21.63
2022-11-19T20:07:03.045Z,24.02
2022-11-19T20:09:32.986Z,23.35
2022-11-19T20:12:01.737Z,20.77
2022-11-19T20:14:30.258Z,23.02
2022-11-19T20:16:58.794Z,23.80
2022-11-19T20:19:27.555Z,21.55
2022-11-19T20:21:56.371Z,22.75
2022-11-19T20:24:25.132Z,22.40
2022-11-19T20:26:55.634Z,22.08
2022-11-19T20:29:24.391Z,22.92
2022-11-19T20:31:53.038Z,22.40
2022-11-19T20:34:21.650Z,22.00
2022-11-19T20:36:50.139Z,23.48
2022-11-19T20:39:18.768Z,21.60
2022-11-19T20:42:05.015Z,23.27
2022-11-19T20:44:34.981Z,24.10
2022-11-19T20:47:05.092Z,22.77
2022-11-19T20:49:35.264Z,20.27
2022-11-19T20:52:04.300Z,19.60
2022-11-19T20:54:33.341Z,21.80
2022-11-19T20:57:02.455Z,23.45
2022-11-19T20:59:31.653Z,23.85
2022-11-19T21:02:01.719Z,22.20
2022-11-19T21:04:36.123Z,23.33
2022-11-19T21:07:05.711Z,22.15
2022-11-19T21:09:34.534Z,25.33
2022-11-19T21:12:03.192Z,23.40
2022-11-19T21:14:31.737Z,24.38
2022-11-19T21:17:01.628Z,21.77
2022-11-19T21:19:30.178Z,23.98
2022-11-19T21:21:58.841Z,21.95
2022-11-19T21:24:27.340Z,24.67
2022-11-19T21:26:55.860Z,22.73
2022-11-19T21:29:24.459Z,22.00
2022-11-19T21:31:52.963Z,26.48
2022-11-19T21:34:22.880Z,24.65
2022-11-19T21:36:51.692Z,23.08
2022-11-19T21:39:21.660Z,22.73
2022-11-19T21:41:50.406Z,22.77
2022-11-19T21:44:21.726Z,23.05
2022-11-19T21:46:50.695Z,24.02
2022-11-19T21:49:19.594Z,23.80
2022-11-19T21:51:50.295Z,22.40
2022-11-19T21:54:18.858Z,25.25
2022-11-19T21:56:48.176Z,21.13
2022-11-19T21:59:17.119Z,23.90
2022-11-19T22:01:49.218Z,26.27
2022-11-19T22:04:20.378Z,25.60
2022-11-19T22:06:50.315Z,22.88
2022-11-19T22:09:19.274Z,21.77
2022-11-19T22:11:47.963Z,22.20
2022-11-19T22:14:16.499Z,23.90
2022-11-19T22:16:45.010Z,23.63
2022-11-19T22:19:14.217Z,26.20
2022-11-19T22:21:42.927Z,24.77
2022-11-19T22:24:14.667Z,24.95
2022-11-19T22:26:43.215Z,23.33
2022-11-19T22:29:11.905Z,24.85
2022-11-19T22:31:40.472Z,21.75
2022-11-19T22:34:15.874Z,23.67
2022-11-19T22:36:44.523Z,25.92
2022-11-19T22:39:14.462Z,25.63
2022-11-19T22:41:43.081Z,23.80
2022-11-19T22:44:11.840Z,25.10
2022-11-19T22:46:40.404Z,23.35
2022-11-19T22:49:09.001Z,24.73
2022-11-19T22:51:37.922Z,22.02
2022-11-19T22:54:08.666Z,24.45
2022-11-19T22:56:39.139Z,23.55
2022-11-19T22:59:07.777Z,24.17
2022-11-19T23:01:37.288Z,21.95
2022-11-19T23:04:07.907Z,24.50
2022-11-19T23:06:37.684Z,25.88
2022-11-19T23:09:07.451Z,26.25
2022-11-19T23:11:53.587Z,26.23
2022-11-19T23:14:25.234Z,24.25
2022-11-19T23:16:53.855Z,24.92
2022-11-19T23:19:23.082Z,22.48
2022-11-19T23:21:51.820Z,25.33
2022-11-19T23:24:21.139Z,21.58
2022-11-19T23:26:49.849Z,26.42
2022-11-19T23:29:18.760Z,24.25
2022-11-19T23:31:48.965Z,23.83
2022-11-19T23:34:17.545Z,24.35
2022-11-19T23:36:46.032Z,21.90
2022-11-19T23:39:16.938Z,25.10
2022-11-19T23:41:45.931Z,24.67
2022-11-19T23:44:14.595Z,23.95
2022-11-19T23:46:43.279Z,22.60
2022-11-19T23:49:13.294Z,24.55
2022-11-19T23:51:42.049Z,26.98
2022-11-19T23:54:13.052Z,25.83
2022-11-19T23:56:41.608Z,25.55
2022-11-19T23:59:10.184Z,30.05
